Thayne, WY

10:18 PM MDT on September 30, 2014 (GMT -0600)
One Mile South of | Change Station
CLOSE
Current Station
Personal Weather Station
Location: Alpine, WY
Elevation: 5650 ft
Nearby Weather Stations

Elev 5650 ft 43.16 °N, 111.03 °W | Updated 4 seconds ago

Partly Cloudy
Partly Cloudy
42.7 °F
Feels Like 43 °F
N
0.0
Wind Variable Wind from South
Gusts 3.0 mph

Today
High -- | Low -- °F
--% Chance of Precip.
Yesterday
High -- | Low -- °F
Precip. -- in
7:20 AM 7:06 PM
Waxing Crescent, 43% visible
Pressure 29.99 in
Visibility 10.0 miles
Clouds Mostly Cloudy 5000 ft
Mostly Cloudy 7000 ft
Windchill 43 °F
Dew Point 36 °F
Humidity 78%
Rainfall 0.32 in
Snow Depth 0 in , 0 in , 0 in
UV 0.0 out of 12
Pollen 6.10 out of 12
Air Quality Not available.
Flu Activity Not available.
METAR KAFO 010355Z AUTO 31006KT 10SM BKN050 BKN070 06/00 A2999 RMK AO2

More Conditions Fewer Conditions

Pressure 29.99 in
Visibility 10.0 miles
Clouds Mostly Cloudy 5000 ft
Mostly Cloudy 7000 ft
Windchill 43 °F
Dew Point 36 °F
Humidity 78%
Rainfall 0.32 in
Snow Depth 0 in , 0 in , 0 in
UV 0.0 out of 12
Pollen 6.10 out of 12
Air Quality Not available.
Flu Activity Not available.
METAR KAFO 010355Z AUTO 31006KT 10SM BKN050 BKN070 06/00 A2999 RMK AO2

More Conditions Fewer Conditions

10-Day Weather Forecast

Almanac

Astronomy

Sep. 30, 2014 Rise Set
Actual Time 7:20 AM MDT 7:06 PM MDT
Civil Twilight 6:51 AM MDT 7:34 PM MDT
Nautical Twilight 6:18 AM MDT 8:07 PM MDT
Astronomical Twilight 5:45 AM MDT 8:41 PM MDT
Moon 1:38 PM MDT (9/30) 11:33 PM MDT (9/30)
Length of Visible Light 12h 43m
Length of Day
11h 46m
Tomorrow will be 2m 55s shorter.
Waxing Crescent, 43% of the Moon is Illuminated
Oct 1
Waxing Crescent
Oct 1
First Quarter
Oct 8
Full
Oct 15
Last Quarter
Oct 23
New

Today's Extremes

State Highs State Lows

Community

WunderPhotos

Upload Photos

1,757,840 photos uploaded!

Nearby

Snow Depth

Station Depth Elevation
Townsend Creek 0 in 8700 ft
Thumb Divide 0 in 7980 ft
Divide Peak 0 in 8860 ft
Big Goose 0 in 7990 ft
Cole Canyon 1 in 5910 ft

Earthquake Activity

City Distance Mag. Time & Date
No recent earthquake activity has been reported nearby.
Minimum magnitude displayed is 2.5.

Coastal Water Temperatures

Place Temperature
No Stations Reporting

Nearby Weather Stations